Terminal Aerodrome Forecast
Issued by NWS Louisville, KY

Home | Current Version | Previous Version | Text Only | Print | Product List | Glossary On
Versions: 1 2 3 4 5 6 7 8 9 10 11 12 13 14 15
000
FTUS43 KLMK 202320
TAFBWG
TAF
KBWG 202320Z 2100/2124 17009KT P6SM VCTS SCT035CB BKN120
     FM210700 20007KT P6SM VCSH BKN035
     FM211000 20006KT 5SM BR SCT025 BKN035
     FM211400 23007KT P6SM BKN015
     FM211900 28008KT P6SM BKN030=

USA.gov is the U.S. government's official web portal to all federal, state and local government web resources and services.